createdAt,value
2022-07-27T06:28:38.819Z,23.70
2022-07-27T06:38:50.778Z,25.45
2022-07-27T06:49:04.826Z,26.10
2022-07-27T06:59:17.829Z,16.70
2022-07-27T07:09:30.800Z,10.60
2022-07-27T07:19:43.807Z,11.70
2022-07-27T07:29:57.816Z,11.10
2022-07-27T07:40:41.939Z,23.70
2022-07-27T07:50:44.866Z,13.60
2022-07-27T08:00:57.846Z,12.30
2022-07-27T08:11:10.860Z,14.50
2022-07-27T08:21:23.953Z,13.30
2022-07-27T08:31:52.220Z,19.50
2022-07-27T08:42:11.863Z,19.00
2022-07-27T08:52:24.890Z,17.50
2022-07-27T09:02:38.029Z,18.80
2022-07-27T09:12:50.902Z,23.60
2022-07-27T09:23:04.911Z,18.10
2022-07-27T09:33:24.924Z,17.10
2022-07-27T09:44:29.729Z,16.70
2022-07-27T09:54:16.098Z,27.90
2022-07-27T10:04:29.075Z,19.00
2022-07-27T10:14:48.966Z,15.90
2022-07-27T10:25:06.960Z,17.80
2022-07-27T10:35:44.989Z,18.40
2022-07-27T10:46:01.561Z,23.50
2022-07-27T10:56:16.990Z,18.30
2022-07-27T11:06:47.814Z,20.60
2022-07-27T11:17:40.035Z,15.50
2022-07-27T11:27:47.023Z,13.40
2022-07-27T11:38:08.041Z,14.80
2022-07-27T11:48:29.088Z,12.40
2022-07-27T11:59:10.052Z,12.00
2022-07-27T12:09:25.101Z,12.30
2022-07-27T12:19:38.126Z,10.60
2022-07-27T12:30:03.065Z,11.00
2022-07-27T12:40:22.094Z,10.45
2022-07-27T12:50:36.131Z,9.90
2022-07-27T13:00:49.172Z,14.60
2022-07-27T13:11:02.164Z,13.10
2022-07-27T13:21:15.174Z,10.70
2022-07-27T13:31:34.218Z,12.50
2022-07-27T13:41:48.140Z,11.40
2022-07-27T13:52:01.274Z,10.80
2022-07-27T14:02:14.243Z,9.40
2022-07-27T14:12:29.216Z,9.70
2022-07-27T14:22:42.208Z,8.90
2022-07-27T14:33:02.183Z,6.40
2022-07-27T14:43:16.251Z,8.10
2022-07-27T14:53:29.188Z,10.30
2022-07-27T15:03:42.348Z,8.40
2022-07-27T15:13:55.222Z,7.70
2022-07-27T15:24:09.249Z,7.00
2022-07-27T15:34:28.261Z,6.40
2022-07-27T15:44:42.230Z,7.60
2022-07-27T15:54:55.272Z,6.00
2022-07-27T16:05:08.243Z,7.60
2022-07-27T16:15:21.274Z,9.20
2022-07-27T16:26:01.016Z,13.20
2022-07-27T16:36:14.294Z,11.70
2022-07-27T16:46:27.316Z,15.50
2022-07-27T16:56:40.319Z,15.80
2022-07-27T17:06:53.311Z,15.00
2022-07-27T17:17:06.353Z,10.10
2022-07-27T17:27:19.319Z,12.80
2022-07-27T17:37:56.059Z,11.00
2022-07-27T17:48:05.335Z,11.40
2022-07-27T17:58:18.380Z,10.30
2022-07-27T18:08:32.350Z,9.60
2022-07-27T18:18:45.377Z,9.20
2022-07-27T18:29:00.411Z,10.50
2022-07-27T18:39:16.705Z,6.30
2022-07-27T18:49:29.521Z,7.60
2022-07-27T18:59:42.451Z,6.60
2022-07-27T19:09:55.454Z,7.70
2022-07-27T19:20:08.468Z,5.50
2022-07-27T19:30:23.434Z,5.50
2022-07-27T19:40:45.315Z,5.70
2022-07-27T19:51:00.970Z,5.80
2022-07-27T20:01:17.577Z,4.80
2022-07-27T20:11:30.454Z,7.90
2022-07-27T20:21:44.798Z,4.30
2022-07-27T20:32:04.478Z,5.90
2022-07-27T20:42:18.504Z,5.60
2022-07-27T20:52:31.557Z,6.20
2022-07-27T21:02:44.622Z,4.00
2022-07-27T21:12:57.534Z,5.80
2022-07-27T21:23:28.539Z,7.00
2022-07-27T21:33:41.622Z,6.70
2022-07-27T21:43:54.578Z,4.70
2022-07-27T21:54:07.587Z,5.70
2022-07-27T22:04:20.690Z,4.70
2022-07-27T22:14:33.577Z,4.80
2022-07-27T22:24:46.579Z,6.00
2022-07-27T22:35:06.592Z,6.70
2022-07-27T22:45:19.619Z,5.20
2022-07-27T22:55:32.621Z,5.00
2022-07-27T23:05:45.669Z,5.80
2022-07-27T23:15:58.694Z,6.80
2022-07-27T23:26:11.633Z,4.90
2022-07-27T23:36:32.656Z,7.20
2022-07-27T23:46:45.691Z,5.00
2022-07-27T23:56:58.660Z,6.00
